createdAt,value
2023-01-03T00:00:23.510Z,48.88
2023-01-03T00:01:23.446Z,43.88
2023-01-03T00:02:23.531Z,43.94
2023-01-03T00:03:23.421Z,48.20
2023-01-03T00:04:23.536Z,53.67
2023-01-03T00:05:23.485Z,53.63
2023-01-03T00:06:23.582Z,45.89
2023-01-03T00:07:23.398Z,48.90
2023-01-03T00:08:23.412Z,42.06
2023-01-03T00:09:23.454Z,40.61
2023-01-03T00:10:23.467Z,42.69
2023-01-03T00:11:23.365Z,42.76
2023-01-03T00:12:30.412Z,42.39
2023-01-03T00:13:25.367Z,46.54
2023-01-03T00:14:23.399Z,41.35
2023-01-03T00:15:23.376Z,54.14
2023-01-03T00:16:23.478Z,40.56
2023-01-03T00:17:23.671Z,42.20
2023-01-03T00:18:23.340Z,49.30
2023-01-03T00:19:23.419Z,44.88
2023-01-03T00:20:23.420Z,43.27
2023-01-03T00:21:23.311Z,42.17
2023-01-03T00:22:23.412Z,41.23
2023-01-03T00:23:23.279Z,55.23
2023-01-03T00:24:23.387Z,42.25
2023-01-03T00:25:23.324Z,42.78
2023-01-03T00:26:23.336Z,44.68
2023-01-03T00:27:23.246Z,40.11
2023-01-03T00:28:23.298Z,43.54
2023-01-03T00:29:23.232Z,47.92
2023-01-03T00:30:23.305Z,44.85
2023-01-03T00:31:23.326Z,40.55
2023-01-03T00:32:23.281Z,43.44
2023-01-03T00:33:23.225Z,42.89
2023-01-03T00:34:23.243Z,40.38
2023-01-03T00:35:23.219Z,53.30
2023-01-03T00:36:23.181Z,50.78
2023-01-03T00:37:23.189Z,48.59
2023-01-03T00:38:23.176Z,43.39
2023-01-03T00:39:23.164Z,40.14
2023-01-03T00:40:23.268Z,41.28
2023-01-03T00:41:23.154Z,51.80
2023-01-03T00:42:23.208Z,54.63
2023-01-03T00:43:23.118Z,47.28
2023-01-03T00:44:23.136Z,42.69
2023-01-03T00:45:25.561Z,40.29
2023-01-03T00:46:24.227Z,47.26
2023-01-03T00:47:23.151Z,42.25
2023-01-03T00:48:23.101Z,59.12
2023-01-03T00:49:23.108Z,42.02
2023-01-03T00:50:23.124Z,55.88
2023-01-03T00:51:23.067Z,40.63
2023-01-03T00:52:23.057Z,42.48
2023-01-03T00:53:23.054Z,53.03
2023-01-03T00:54:23.045Z,42.95
2023-01-03T00:55:23.077Z,44.63
2023-01-03T00:56:23.022Z,42.25
2023-01-03T00:57:23.035Z,45.47
2023-01-03T00:58:23.012Z,44.01
2023-01-03T00:59:23.104Z,42.42
2023-01-03T01:00:23.031Z,46.47
2023-01-03T01:01:23.012Z,42.13
2023-01-03T01:02:23.131Z,43.49
2023-01-03T01:03:23.132Z,40.29
2023-01-03T01:04:22.983Z,46.72
2023-01-03T01:05:22.977Z,42.50
2023-01-03T01:06:22.934Z,40.26
2023-01-03T01:07:23.016Z,47.70
2023-01-03T01:08:22.987Z,55.70
2023-01-03T01:09:22.945Z,44.69
2023-01-03T01:10:22.977Z,48.62
2023-01-03T01:11:22.930Z,58.20
2023-01-03T01:12:22.917Z,45.99
2023-01-03T01:13:22.926Z,40.63
2023-01-03T01:14:22.878Z,44.26
2023-01-03T01:15:22.994Z,48.44
2023-01-03T01:16:22.945Z,40.50
2023-01-03T01:17:23.281Z,40.64
2023-01-03T01:18:22.924Z,42.06
2023-01-03T01:19:22.925Z,40.20
2023-01-03T01:20:23.043Z,43.96
2023-01-03T01:21:22.876Z,47.75
2023-01-03T01:22:22.818Z,40.52
2023-01-03T01:23:22.802Z,40.25
2023-01-03T01:24:22.829Z,46.34
2023-01-03T01:25:22.819Z,52.24
2023-01-03T01:26:22.828Z,47.53
2023-01-03T01:27:23.878Z,44.97
2023-01-03T01:28:22.841Z,57.63
2023-01-03T01:29:22.784Z,45.09
2023-01-03T01:30:22.820Z,44.08
2023-01-03T01:31:22.835Z,43.34
2023-01-03T01:32:22.957Z,45.08
2023-01-03T01:33:22.737Z,42.19
2023-01-03T01:34:22.852Z,45.73
2023-01-03T01:35:22.870Z,53.64
2023-01-03T01:36:22.733Z,56.38
2023-01-03T01:37:22.721Z,56.36
2023-01-03T01:38:22.731Z,55.91
2023-01-03T01:39:22.752Z,56.17
2023-01-03T01:40:22.822Z,56.47
2023-01-03T01:41:22.790Z,58.94
2023-01-03T01:42:27.307Z,59.01
2023-01-03T01:43:23.711Z,58.99
2023-01-03T01:44:22.655Z,58.85
2023-01-03T01:45:22.645Z,57.94
2023-01-03T01:46:22.771Z,58.31
2023-01-03T01:47:22.648Z,58.44
2023-01-03T01:48:22.647Z,57.28
2023-01-03T01:49:22.647Z,58.96
2023-01-03T01:50:22.624Z,56.98
2023-01-03T01:51:22.659Z,56.33
2023-01-03T01:52:22.597Z,56.55
2023-01-03T01:53:22.605Z,55.80
2023-01-03T01:54:22.581Z,56.64
2023-01-03T01:55:22.584Z,55.97
2023-01-03T01:56:22.596Z,58.62
2023-01-03T01:57:22.547Z,55.83
2023-01-03T01:58:22.542Z,57.53
2023-01-03T01:59:22.537Z,60.49
2023-01-03T02:00:22.519Z,57.15
2023-01-03T02:01:22.732Z,41.47
2023-01-03T02:02:22.811Z,43.32
2023-01-03T02:03:22.534Z,62.66
2023-01-03T02:04:22.513Z,44.72
2023-01-03T02:05:22.501Z,51.05
2023-01-03T02:06:22.504Z,48.11
2023-01-03T02:07:22.549Z,45.57
2023-01-03T02:08:22.623Z,44.60
2023-01-03T02:09:22.475Z,41.21
2023-01-03T02:10:22.491Z,48.11
2023-01-03T02:11:22.519Z,44.14
2023-01-03T02:12:22.447Z,56.67
2023-01-03T02:13:22.484Z,43.60
2023-01-03T02:14:22.434Z,42.95
2023-01-03T02:15:22.480Z,46.61
2023-01-03T02:16:22.545Z,43.22
2023-01-03T02:17:22.442Z,45.80
2023-01-03T02:18:22.403Z,42.53
2023-01-03T02:19:22.384Z,42.54
2023-01-03T02:20:22.388Z,45.89
2023-01-03T02:21:22.415Z,46.45
2023-01-03T02:22:22.361Z,53.10
2023-01-03T02:23:23.348Z,48.02
2023-01-03T02:24:22.370Z,43.69
2023-01-03T02:25:22.329Z,42.92
2023-01-03T02:26:22.340Z,44.43
2023-01-03T02:27:22.320Z,42.94
2023-01-03T02:28:22.411Z,43.60
2023-01-03T02:29:22.292Z,46.55
2023-01-03T02:30:22.301Z,55.47
2023-01-03T02:31:22.363Z,47.48
2023-01-03T02:32:22.308Z,47.28
2023-01-03T02:33:22.287Z,56.13
2023-01-03T02:34:22.283Z,48.92
2023-01-03T02:35:22.270Z,45.28
2023-01-03T02:36:22.287Z,48.87
2023-01-03T02:37:22.246Z,45.08
2023-01-03T02:38:23.229Z,49.27
2023-01-03T02:39:23.994Z,42.20
2023-01-03T02:40:23.245Z,44.50
2023-01-03T02:41:22.224Z,42.09
2023-01-03T02:42:22.200Z,58.57
2023-01-03T02:43:22.191Z,44.52
2023-01-03T02:44:22.174Z,44.03
2023-01-03T02:45:22.177Z,54.65
2023-01-03T02:46:22.259Z,43.71
2023-01-03T02:47:22.157Z,44.12
2023-01-03T02:48:22.153Z,42.96
2023-01-03T02:49:22.137Z,52.46
2023-01-03T02:50:22.121Z,49.74
2023-01-03T02:51:23.148Z,44.56
2023-01-03T02:52:22.117Z,41.13
2023-01-03T02:53:22.110Z,46.02
2023-01-03T02:54:22.107Z,44.17
2023-01-03T02:55:22.145Z,40.78
2023-01-03T02:56:22.119Z,44.95
2023-01-03T02:57:22.082Z,45.07
2023-01-03T02:58:22.063Z,45.15
2023-01-03T02:59:22.080Z,40.54
2023-01-03T03:00:22.066Z,40.34
2023-01-03T03:01:22.178Z,44.79
2023-01-03T03:02:22.236Z,46.07
2023-01-03T03:03:22.055Z,52.63
2023-01-03T03:04:22.022Z,45.36
2023-01-03T03:05:22.027Z,46.79
2023-01-03T03:06:22.037Z,49.71
2023-01-03T03:07:21.997Z,44.20
2023-01-03T03:08:22.001Z,42.96
2023-01-03T03:09:22.005Z,46.55
2023-01-03T03:10:21.977Z,44.58
2023-01-03T03:11:22.007Z,44.76
2023-01-03T03:12:21.972Z,49.16
2023-01-03T03:13:21.955Z,52.36
2023-01-03T03:14:21.958Z,40.56
2023-01-03T03:15:21.942Z,43.15
2023-01-03T03:16:22.007Z,42.62
2023-01-03T03:17:21.955Z,57.10
2023-01-03T03:18:21.926Z,42.27
2023-01-03T03:19:21.917Z,44.00
2023-01-03T03:20:21.907Z,42.57
2023-01-03T03:21:21.899Z,43.49
2023-01-03T03:22:21.921Z,43.37
2023-01-03T03:23:21.876Z,41.11
2023-01-03T03:24:21.870Z,48.38
2023-01-03T03:25:22.689Z,45.15
2023-01-03T03:26:21.856Z,45.42
2023-01-03T03:27:21.885Z,46.86
2023-01-03T03:28:21.845Z,48.35
2023-01-03T03:29:21.837Z,50.38
2023-01-03T03:30:21.829Z,40.53
2023-01-03T03:31:21.915Z,48.11
2023-01-03T03:32:21.951Z,52.57
2023-01-03T03:33:21.811Z,47.49
2023-01-03T03:34:21.800Z,42.97
2023-01-03T03:35:21.787Z,47.02
2023-01-03T03:36:21.783Z,56.27
2023-01-03T03:37:21.796Z,46.38
2023-01-03T03:38:21.777Z,45.10
2023-01-03T03:39:21.768Z,44.68
2023-01-03T03:40:21.751Z,41.22
2023-01-03T03:41:21.738Z,45.52
2023-01-03T03:42:21.762Z,45.63
2023-01-03T03:43:21.729Z,54.00
2023-01-03T03:44:21.716Z,54.69
2023-01-03T03:45:21.738Z,45.03
2023-01-03T03:46:21.795Z,42.13
2023-01-03T03:47:21.779Z,47.20
2023-01-03T03:48:21.697Z,42.38
2023-01-03T03:49:21.688Z,48.62
2023-01-03T03:50:21.674Z,49.57
2023-01-03T03:51:21.660Z,59.01
2023-01-03T03:52:21.650Z,45.89
2023-01-03T03:53:21.668Z,43.60
2023-01-03T03:54:21.642Z,52.47
2023-01-03T03:55:21.625Z,44.40
2023-01-03T03:56:21.625Z,50.88
2023-01-03T03:57:21.633Z,60.74
2023-01-03T03:58:21.635Z,51.23
2023-01-03T03:59:21.606Z,53.08
2023-01-03T04:00:21.640Z,50.17
2023-01-03T04:01:21.615Z,54.46
2023-01-03T04:02:21.714Z,56.63
2023-01-03T04:03:22.675Z,50.40
2023-01-03T04:04:21.570Z,48.75
2023-01-03T04:05:21.574Z,48.39
2023-01-03T04:06:21.548Z,50.78
2023-01-03T04:07:21.545Z,50.92
2023-01-03T04:08:21.604Z,53.02
2023-01-03T04:09:21.548Z,52.35
2023-01-03T04:10:21.536Z,48.17
2023-01-03T04:11:21.517Z,47.51
2023-01-03T04:12:21.511Z,50.70
2023-01-03T04:13:21.549Z,49.47
2023-01-03T04:14:21.495Z,51.54
2023-01-03T04:15:21.484Z,51.47
2023-01-03T04:16:21.520Z,55.57
2023-01-03T04:17:21.490Z,51.26
2023-01-03T04:18:21.486Z,52.27
2023-01-03T04:19:21.455Z,56.05
2023-01-03T04:20:21.445Z,52.04
2023-01-03T04:21:21.474Z,47.68
2023-01-03T04:22:21.450Z,51.33
2023-01-03T04:23:21.483Z,57.76
2023-01-03T04:24:21.430Z,54.87
2023-01-03T04:25:21.437Z,55.34
2023-01-03T04:26:21.409Z,48.60
2023-01-03T04:27:21.410Z,52.58
2023-01-03T04:28:21.436Z,55.65
2023-01-03T04:29:21.414Z,52.96
2023-01-03T04:30:21.366Z,53.43
2023-01-03T04:31:21.417Z,51.39
2023-01-03T04:32:21.356Z,55.59
2023-01-03T04:33:21.394Z,52.52
2023-01-03T04:34:22.333Z,52.87
2023-01-03T04:35:21.334Z,51.08
2023-01-03T04:36:21.406Z,51.67
2023-01-03T04:37:21.332Z,50.49
2023-01-03T04:38:21.330Z,56.48
2023-01-03T04:39:21.310Z,51.79
2023-01-03T04:40:21.295Z,53.28
2023-01-03T04:41:21.307Z,53.17
2023-01-03T04:42:21.283Z,58.23
2023-01-03T04:43:21.320Z,57.49
2023-01-03T04:44:21.310Z,58.60
2023-01-03T04:45:21.268Z,63.21
2023-01-03T04:46:21.386Z,59.45
2023-01-03T04:47:21.243Z,59.97
2023-01-03T04:48:21.270Z,62.38
2023-01-03T04:49:21.259Z,60.35
2023-01-03T04:50:21.224Z,61.43
2023-01-03T04:51:21.270Z,60.36
2023-01-03T04:52:21.221Z,59.90
2023-01-03T04:53:21.236Z,59.93
2023-01-03T04:54:22.182Z,60.23
2023-01-03T04:55:21.190Z,59.45
2023-01-03T04:56:21.200Z,60.46
2023-01-03T04:57:21.175Z,63.17
2023-01-03T04:58:21.175Z,60.33
2023-01-03T04:59:21.175Z,60.38
2023-01-03T05:00:21.143Z,60.14
2023-01-03T05:01:21.273Z,60.86
2023-01-03T05:02:21.290Z,60.33
2023-01-03T05:03:27.477Z,63.36
2023-01-03T05:04:23.165Z,60.55
2023-01-03T05:05:21.108Z,60.35
2023-01-03T05:06:21.123Z,60.19
2023-01-03T05:07:21.142Z,60.52
2023-01-03T05:08:21.152Z,60.75
2023-01-03T05:09:21.117Z,61.27
2023-01-03T05:10:22.101Z,60.85
2023-01-03T05:11:21.051Z,60.94
2023-01-03T05:12:21.036Z,61.29
2023-01-03T05:13:21.037Z,63.06
2023-01-03T05:14:21.954Z,60.04
2023-01-03T05:15:21.029Z,60.77
2023-01-03T05:16:21.087Z,61.63
2023-01-03T05:17:21.007Z,60.22
2023-01-03T05:18:21.008Z,61.19
2023-01-03T05:19:21.017Z,60.83
2023-01-03T05:20:20.986Z,61.26
2023-01-03T05:21:20.983Z,60.96
2023-01-03T05:22:20.974Z,60.99
2023-01-03T05:23:21.045Z,61.54
2023-01-03T05:24:20.987Z,63.27
2023-01-03T05:25:20.950Z,61.23
2023-01-03T05:26:20.950Z,60.58
2023-01-03T05:27:20.938Z,60.51
2023-01-03T05:28:20.921Z,60.65
2023-01-03T05:29:20.952Z,60.39
2023-01-03T05:30:20.931Z,60.47
2023-01-03T05:31:21.047Z,59.20
2023-01-03T05:32:20.994Z,60.24
2023-01-03T05:33:21.892Z,59.11
2023-01-03T05:34:20.939Z,59.35
2023-01-03T05:35:20.878Z,60.51
2023-01-03T05:36:20.875Z,59.92
2023-01-03T05:37:20.850Z,59.21
2023-01-03T05:38:20.849Z,59.24
2023-01-03T05:39:20.860Z,59.86
2023-01-03T05:40:20.842Z,60.69
2023-01-03T05:41:20.828Z,60.02
2023-01-03T05:42:20.823Z,60.65
2023-01-03T05:43:20.816Z,58.61
2023-01-03T05:44:20.827Z,58.45
2023-01-03T05:45:20.791Z,57.62
2023-01-03T05:46:20.862Z,58.48
2023-01-03T05:47:20.782Z,59.04
2023-01-03T05:48:20.776Z,59.58
2023-01-03T05:49:20.810Z,58.07
2023-01-03T05:50:20.760Z,57.98
2023-01-03T05:51:20.737Z,57.86
2023-01-03T05:52:21.740Z,55.68
2023-01-03T05:53:20.754Z,57.72
2023-01-03T05:54:20.756Z,55.55
2023-01-03T05:55:20.723Z,57.25
2023-01-03T05:56:20.705Z,57.28
2023-01-03T05:57:20.711Z,58.52
2023-01-03T05:58:20.680Z,55.37
2023-01-03T05:59:21.761Z,59.78
2023-01-03T06:00:20.687Z,56.98
2023-01-03T06:01:20.725Z,56.55
2023-01-03T06:02:20.688Z,55.56
2023-01-03T06:03:20.650Z,55.71
2023-01-03T06:04:20.726Z,56.76
2023-01-03T06:05:20.632Z,56.81
2023-01-03T06:06:20.626Z,54.35
2023-01-03T06:07:20.629Z,49.09
2023-01-03T06:08:20.617Z,56.27
2023-01-03T06:09:20.619Z,55.15
2023-01-03T06:10:20.635Z,53.41
2023-01-03T06:11:20.597Z,56.03
2023-01-03T06:12:20.605Z,55.22
2023-01-03T06:13:21.577Z,58.77
2023-01-03T06:14:20.582Z,55.02
2023-01-03T06:15:20.588Z,57.23
2023-01-03T06:16:24.663Z,55.63
2023-01-03T06:17:21.629Z,54.68
2023-01-03T06:18:20.558Z,58.30
2023-01-03T06:19:20.594Z,61.79
2023-01-03T06:20:20.565Z,57.53
2023-01-03T06:21:20.549Z,55.37
2023-01-03T06:22:20.525Z,56.07
2023-01-03T06:23:20.533Z,55.20
2023-01-03T06:24:20.503Z,60.31
2023-01-03T06:25:20.521Z,59.26
2023-01-03T06:26:20.479Z,56.14
2023-01-03T06:27:20.472Z,57.29
2023-01-03T06:28:20.461Z,56.71
2023-01-03T06:29:20.513Z,55.68
2023-01-03T06:30:20.471Z,57.93
2023-01-03T06:31:20.506Z,52.66
2023-01-03T06:32:20.437Z,54.52
2023-01-03T06:33:20.411Z,56.25
2023-01-03T06:34:20.411Z,56.93
2023-01-03T06:35:20.429Z,59.24
2023-01-03T06:36:20.396Z,59.38
2023-01-03T06:37:20.392Z,58.31
2023-01-03T06:38:20.375Z,56.36
2023-01-03T06:39:20.398Z,56.00
2023-01-03T06:40:20.390Z,61.06
2023-01-03T06:41:20.345Z,56.42
2023-01-03T06:42:21.361Z,56.94
2023-01-03T06:43:20.347Z,55.27
2023-01-03T06:44:20.362Z,57.28
2023-01-03T06:45:20.350Z,56.21
2023-01-03T06:46:20.381Z,58.57
2023-01-03T06:47:20.306Z,56.53
2023-01-03T06:48:20.301Z,57.33
2023-01-03T06:49:20.298Z,57.47
2023-01-03T06:50:20.308Z,59.63
2023-01-03T06:51:20.276Z,56.42
2023-01-03T06:52:20.269Z,56.42
2023-01-03T06:53:20.280Z,56.69
2023-01-03T06:54:20.312Z,57.67
2023-01-03T06:55:20.375Z,54.70
2023-01-03T06:56:20.244Z,56.73
2023-01-03T06:57:25.696Z,57.27
2023-01-03T06:58:21.986Z,58.44
2023-01-03T06:59:20.218Z,54.21
2023-01-03T07:00:20.245Z,58.44
2023-01-03T07:01:20.282Z,55.26
2023-01-03T07:02:20.312Z,56.02
2023-01-03T07:03:20.190Z,56.86
2023-01-03T07:04:20.220Z,51.61
2023-01-03T07:05:20.182Z,59.03
2023-01-03T07:06:20.189Z,56.86
2023-01-03T07:07:20.168Z,56.51
2023-01-03T07:08:20.147Z,59.26
2023-01-03T07:09:20.143Z,54.75
2023-01-03T07:10:20.135Z,56.97
2023-01-03T07:11:20.158Z,54.24
2023-01-03T07:12:20.122Z,51.79
2023-01-03T07:13:20.116Z,55.35
2023-01-03T07:14:20.144Z,53.66
2023-01-03T07:15:20.103Z,54.85
2023-01-03T07:16:20.205Z,49.90
2023-01-03T07:17:20.095Z,55.41
2023-01-03T07:18:20.076Z,57.14
2023-01-03T07:19:20.075Z,52.93
2023-01-03T07:20:20.069Z,55.53
2023-01-03T07:21:20.082Z,57.86
2023-01-03T07:22:20.052Z,53.78
2023-01-03T07:23:20.044Z,53.51
2023-01-03T07:24:20.039Z,54.19
2023-01-03T07:25:20.038Z,56.95
2023-01-03T07:26:20.054Z,62.37
2023-01-03T07:27:20.008Z,52.96
2023-01-03T07:28:19.994Z,54.23
2023-01-03T07:29:20.016Z,55.13
2023-01-03T07:30:19.988Z,54.72
2023-01-03T07:31:20.049Z,51.90
2023-01-03T07:32:19.993Z,51.38
2023-01-03T07:33:19.958Z,51.29
2023-01-03T07:34:20.004Z,56.65
2023-01-03T07:35:19.957Z,55.83
2023-01-03T07:36:19.999Z,54.60
2023-01-03T07:37:19.942Z,53.68
2023-01-03T07:38:19.932Z,51.80
2023-01-03T07:39:19.919Z,50.02
2023-01-03T07:40:19.911Z,54.99
2023-01-03T07:41:19.950Z,56.46
2023-01-03T07:42:19.894Z,55.23
2023-01-03T07:43:19.922Z,56.16
2023-01-03T07:44:19.884Z,54.52
2023-01-03T07:45:19.871Z,54.96
2023-01-03T07:46:20.005Z,49.99
2023-01-03T07:47:19.866Z,54.92
2023-01-03T07:48:20.889Z,56.43
2023-01-03T07:49:19.842Z,55.14
2023-01-03T07:50:19.839Z,53.68
2023-01-03T07:51:19.836Z,52.51
2023-01-03T07:52:19.815Z,54.77
2023-01-03T07:53:19.848Z,50.39
2023-01-03T07:54:19.809Z,53.21
2023-01-03T07:55:19.797Z,54.07
2023-01-03T07:56:19.811Z,56.32
2023-01-03T07:57:19.772Z,53.23
2023-01-03T07:58:19.813Z,56.36
2023-01-03T07:59:19.831Z,53.94
2023-01-03T08:00:19.765Z,52.48
2023-01-03T08:01:19.858Z,54.72
2023-01-03T08:02:19.894Z,53.61
2023-01-03T08:03:19.759Z,55.72
2023-01-03T08:04:19.844Z,52.70
2023-01-03T08:05:19.719Z,56.19
2023-01-03T08:06:19.724Z,56.45
2023-01-03T08:07:19.710Z,56.64
2023-01-03T08:08:19.751Z,55.28
2023-01-03T08:09:19.693Z,54.00
2023-01-03T08:10:19.685Z,54.53
2023-01-03T08:11:19.684Z,53.76
2023-01-03T08:12:19.668Z,56.33
2023-01-03T08:13:19.708Z,54.89
2023-01-03T08:14:25.252Z,55.13
2023-01-03T08:15:21.651Z,55.66
2023-01-03T08:16:19.736Z,54.26
2023-01-03T08:17:19.634Z,56.08
2023-01-03T08:18:19.633Z,57.87
2023-01-03T08:19:19.660Z,53.10
2023-01-03T08:20:19.610Z,53.94
2023-01-03T08:21:19.603Z,56.28
2023-01-03T08:22:19.609Z,50.78
2023-01-03T08:23:19.587Z,55.70
2023-01-03T08:24:19.603Z,60.51
2023-01-03T08:25:19.574Z,52.73
2023-01-03T08:26:19.566Z,56.14
2023-01-03T08:27:19.591Z,56.46
2023-01-03T08:28:19.547Z,53.76
2023-01-03T08:29:19.590Z,56.47
2023-01-03T08:30:19.534Z,58.85
2023-01-03T08:31:19.598Z,52.50
2023-01-03T08:32:19.521Z,55.43
2023-01-03T08:33:19.518Z,55.59
2023-01-03T08:34:25.274Z,51.36
2023-01-03T08:35:21.503Z,56.17
2023-01-03T08:36:19.503Z,55.16
2023-01-03T08:37:19.484Z,53.99
2023-01-03T08:38:19.469Z,53.13
2023-01-03T08:39:19.498Z,55.40
2023-01-03T08:40:19.461Z,56.94
2023-01-03T08:41:19.447Z,55.12
2023-01-03T08:42:19.440Z,54.33
2023-01-03T08:43:19.439Z,55.01
2023-01-03T08:44:19.455Z,56.31
2023-01-03T08:45:19.420Z,57.83
2023-01-03T08:46:19.428Z,63.53
2023-01-03T08:47:19.440Z,55.66
2023-01-03T08:48:19.404Z,56.01
2023-01-03T08:49:19.416Z,54.98
2023-01-03T08:50:19.401Z,55.89
2023-01-03T08:51:19.382Z,55.96
2023-01-03T08:52:19.371Z,57.19
2023-01-03T08:53:19.362Z,56.66
2023-01-03T08:54:19.376Z,55.64
2023-01-03T08:55:19.344Z,53.45
2023-01-03T08:56:19.338Z,56.96
2023-01-03T08:57:19.329Z,57.26
2023-01-03T08:58:19.329Z,53.68
2023-01-03T08:59:19.374Z,58.08
2023-01-03T09:00:19.314Z,53.53
2023-01-03T09:01:19.441Z,50.14
2023-01-03T09:02:19.407Z,53.35
2023-01-03T09:03:19.522Z,50.05
2023-01-03T09:04:19.323Z,56.63
2023-01-03T09:05:19.274Z,56.39
2023-01-03T09:06:19.267Z,55.91
2023-01-03T09:07:19.233Z,53.39
2023-01-03T09:08:20.243Z,54.06
2023-01-03T09:09:19.278Z,56.33
2023-01-03T09:10:19.234Z,53.31
2023-01-03T09:11:19.222Z,57.48
2023-01-03T09:12:19.212Z,57.60
2023-01-03T09:13:19.210Z,55.89
2023-01-03T09:14:19.235Z,54.77
2023-01-03T09:15:19.199Z,54.55
2023-01-03T09:16:19.225Z,55.67
2023-01-03T09:17:19.181Z,59.89
2023-01-03T09:18:19.166Z,55.54
2023-01-03T09:19:19.192Z,55.88
2023-01-03T09:20:19.167Z,57.61
2023-01-03T09:21:19.156Z,54.12
2023-01-03T09:22:19.324Z,54.87
2023-01-03T09:23:19.134Z,55.53
2023-01-03T09:24:19.143Z,55.89
2023-01-03T09:25:19.142Z,55.13
2023-01-03T09:26:19.115Z,53.33
2023-01-03T09:27:19.114Z,56.36
2023-01-03T09:28:19.099Z,54.52
2023-01-03T09:29:19.107Z,51.36
2023-01-03T09:30:19.122Z,56.13
2023-01-03T09:31:19.109Z,57.34
2023-01-03T09:32:19.182Z,55.88
2023-01-03T09:33:19.058Z,56.03
2023-01-03T09:34:19.050Z,53.37
2023-01-03T09:35:19.088Z,55.70
2023-01-03T09:36:19.037Z,61.24
2023-01-03T09:37:19.040Z,55.38
2023-01-03T09:38:19.034Z,53.77
2023-01-03T09:39:19.042Z,54.08
2023-01-03T09:40:19.055Z,59.94
2023-01-03T09:41:18.996Z,54.71
2023-01-03T09:42:18.987Z,57.23
2023-01-03T09:43:25.049Z,56.44
2023-01-03T09:44:20.970Z,56.87
2023-01-03T09:45:18.996Z,52.08
2023-01-03T09:46:18.992Z,55.56
2023-01-03T09:47:19.065Z,55.00
2023-01-03T09:48:18.945Z,53.81
2023-01-03T09:49:18.938Z,59.27
2023-01-03T09:50:34.620Z,58.71
2023-01-03T09:51:25.944Z,59.37
2023-01-03T09:52:20.909Z,58.79
2023-01-03T09:53:18.928Z,59.60
2023-01-03T09:54:18.901Z,60.36
2023-01-03T09:55:18.917Z,60.20
2023-01-03T09:56:18.879Z,60.35
2023-01-03T09:57:23.205Z,60.18
2023-01-03T09:58:20.864Z,59.62
2023-01-03T09:59:18.875Z,58.99
2023-01-03T10:00:18.887Z,59.52
2023-01-03T10:01:18.953Z,58.65
2023-01-03T10:02:18.991Z,61.74
2023-01-03T10:03:18.875Z,58.22
2023-01-03T10:04:18.819Z,59.17
2023-01-03T10:05:18.841Z,62.99
2023-01-03T10:06:18.825Z,59.62
2023-01-03T10:07:18.798Z,58.99
2023-01-03T10:08:18.809Z,59.04
2023-01-03T10:09:18.799Z,57.32
2023-01-03T10:10:18.807Z,54.92
2023-01-03T10:11:18.775Z,57.69
2023-01-03T10:12:18.772Z,56.18
2023-01-03T10:13:20.340Z,58.41
2023-01-03T10:14:19.749Z,57.99
2023-01-03T10:15:18.791Z,54.93
2023-01-03T10:16:18.766Z,56.24
2023-01-03T10:17:18.730Z,55.44
2023-01-03T10:18:18.716Z,58.98
2023-01-03T10:19:18.714Z,54.70
2023-01-03T10:20:18.734Z,56.76
2023-01-03T10:21:18.691Z,56.24
2023-01-03T10:22:18.683Z,56.65
2023-01-03T10:23:18.675Z,53.62
2023-01-03T10:24:18.686Z,59.90
2023-01-03T10:25:18.703Z,55.76
2023-01-03T10:26:51.125Z,57.01
2023-01-03T10:27:18.656Z,70.34
2023-01-03T10:28:18.641Z,53.29
2023-01-03T10:29:18.631Z,58.77
2023-01-03T10:30:18.633Z,55.89
2023-01-03T10:31:18.716Z,55.65
2023-01-03T10:32:18.698Z,54.35
2023-01-03T10:33:18.627Z,54.01
2023-01-03T10:34:18.617Z,60.91
2023-01-03T10:35:18.602Z,56.54
2023-01-03T10:36:18.624Z,52.54
2023-01-03T10:37:18.577Z,54.97
2023-01-03T10:38:18.559Z,55.57
2023-01-03T10:39:18.569Z,58.34
2023-01-03T10:40:18.552Z,54.74
2023-01-03T10:41:18.564Z,59.28
2023-01-03T10:42:18.532Z,56.30
2023-01-03T10:43:18.554Z,58.77
2023-01-03T10:44:18.517Z,54.80
2023-01-03T10:45:18.521Z,55.07
2023-01-03T10:46:18.583Z,52.09
2023-01-03T10:47:18.499Z,55.43
2023-01-03T10:48:18.489Z,54.86
2023-01-03T10:49:27.871Z,60.80
2023-01-03T10:50:20.492Z,53.63
2023-01-03T10:51:18.492Z,51.44
2023-01-03T10:52:18.472Z,56.83
2023-01-03T10:53:19.465Z,55.06
2023-01-03T10:54:18.477Z,52.35
2023-01-03T10:55:19.119Z,56.30
2023-01-03T10:56:18.471Z,55.95
2023-01-03T10:57:18.426Z,55.68
2023-01-03T10:58:18.429Z,51.55
2023-01-03T10:59:18.407Z,55.24
2023-01-03T11:00:18.423Z,55.12
2023-01-03T11:01:18.525Z,50.14
2023-01-03T11:02:18.592Z,54.50
2023-01-03T11:03:18.456Z,56.85
2023-01-03T11:04:18.407Z,52.55
2023-01-03T11:05:18.364Z,55.09
2023-01-03T11:06:18.398Z,56.25
2023-01-03T11:07:18.354Z,53.46
2023-01-03T11:08:18.405Z,56.03
2023-01-03T11:09:18.329Z,56.38
2023-01-03T11:10:18.346Z,53.75
2023-01-03T11:11:18.348Z,55.25
2023-01-03T11:12:18.300Z,56.34
2023-01-03T11:13:18.304Z,57.15
2023-01-03T11:14:18.291Z,55.36
2023-01-03T11:15:18.292Z,61.46
2023-01-03T11:16:18.356Z,52.24
2023-01-03T11:17:18.357Z,57.93
2023-01-03T11:18:18.283Z,52.99
2023-01-03T11:19:18.258Z,52.66
2023-01-03T11:20:18.282Z,53.98
2023-01-03T11:21:18.241Z,56.25
2023-01-03T11:22:18.270Z,56.96
2023-01-03T11:23:18.221Z,54.97
2023-01-03T11:24:18.217Z,57.40
2023-01-03T11:25:18.203Z,56.61
2023-01-03T11:26:18.209Z,58.26
2023-01-03T11:27:18.213Z,58.22
2023-01-03T11:28:18.186Z,56.05
2023-01-03T11:29:18.176Z,52.51
2023-01-03T11:30:18.167Z,53.86
2023-01-03T11:31:18.248Z,58.73
2023-01-03T11:32:18.224Z,53.56
2023-01-03T11:33:20.383Z,55.26
2023-01-03T11:34:19.148Z,56.55
2023-01-03T11:35:23.399Z,57.65
2023-01-03T11:36:20.132Z,53.86
2023-01-03T11:37:18.145Z,53.57
2023-01-03T11:38:18.112Z,55.02
2023-01-03T11:39:21.367Z,55.62
2023-01-03T11:40:20.084Z,53.30
2023-01-03T11:41:18.098Z,54.91
2023-01-03T11:42:18.102Z,56.92
2023-01-03T11:43:18.068Z,54.39
2023-01-03T11:44:18.060Z,54.67
2023-01-03T11:45:18.078Z,57.39
2023-01-03T11:46:18.119Z,56.96
2023-01-03T11:47:18.074Z,57.48
2023-01-03T11:48:18.034Z,53.30
2023-01-03T11:49:18.061Z,53.44
2023-01-03T11:50:18.016Z,57.16
2023-01-03T11:51:18.023Z,56.89
2023-01-03T11:52:18.030Z,53.67
2023-01-03T11:53:18.062Z,57.25
2023-01-03T11:54:17.990Z,56.15
2023-01-03T11:55:17.980Z,53.54
2023-01-03T11:56:17.969Z,57.71
2023-01-03T11:57:17.999Z,54.87
2023-01-03T11:58:17.967Z,56.85
2023-01-03T11:59:17.957Z,54.00
2023-01-03T12:00:17.953Z,55.17
2023-01-03T12:01:17.981Z,57.96
2023-01-03T12:02:18.104Z,55.16
2023-01-03T12:03:18.110Z,53.84
2023-01-03T12:04:17.938Z,56.06
2023-01-03T12:05:17.904Z,58.99
2023-01-03T12:06:17.899Z,56.23
2023-01-03T12:08:19.908Z,56.91
2023-01-03T12:09:17.905Z,54.75
2023-01-03T12:10:17.870Z,56.42
2023-01-03T12:11:17.863Z,53.46
2023-01-03T12:12:17.853Z,57.73
2023-01-03T12:13:18.386Z,58.15
2023-01-03T12:14:17.828Z,53.91
2023-01-03T12:15:17.828Z,55.08
2023-01-03T12:16:17.852Z,62.41
2023-01-03T12:17:17.821Z,57.64
2023-01-03T12:18:17.829Z,53.48
2023-01-03T12:19:17.803Z,53.77
2023-01-03T12:20:17.800Z,54.45
2023-01-03T12:21:17.786Z,59.33
2023-01-03T12:22:17.782Z,56.60
2023-01-03T12:23:17.788Z,57.99
2023-01-03T12:24:17.767Z,57.00
2023-01-03T12:25:17.743Z,55.62
2023-01-03T12:26:17.741Z,57.30
2023-01-03T12:27:17.732Z,50.71
2023-01-03T12:28:17.754Z,56.32
2023-01-03T12:29:17.720Z,55.45
2023-01-03T12:30:17.761Z,54.49
2023-01-03T12:31:17.807Z,50.39
2023-01-03T12:32:17.696Z,56.53
2023-01-03T12:33:17.728Z,55.70
2023-01-03T12:34:17.687Z,50.54
2023-01-03T12:35:17.679Z,55.61
2023-01-03T12:36:17.667Z,57.38
2023-01-03T12:37:17.681Z,55.73
2023-01-03T12:38:17.680Z,57.78
2023-01-03T12:39:17.669Z,56.47
2023-01-03T12:40:17.647Z,55.53
2023-01-03T12:41:17.677Z,53.80
2023-01-03T12:42:18.613Z,55.90
2023-01-03T12:43:17.644Z,54.80
2023-01-03T12:44:17.599Z,55.71
2023-01-03T12:45:17.631Z,55.06
2023-01-03T12:46:17.632Z,57.32
2023-01-03T12:47:17.625Z,50.43
2023-01-03T12:48:17.610Z,58.63
2023-01-03T12:49:17.567Z,56.68
2023-01-03T12:50:17.577Z,56.13
2023-01-03T12:51:17.558Z,54.07
2023-01-03T12:52:17.599Z,54.38
2023-01-03T12:53:17.543Z,54.37